createdAt,value
2023-01-23T00:01:36.648Z,54.80
2023-01-23T00:04:05.813Z,44.58
2023-01-23T00:06:34.603Z,53.42
2023-01-23T00:09:02.797Z,66.05
2023-01-23T00:11:32.477Z,49.92
2023-01-23T00:14:03.091Z,50.72
2023-01-23T00:16:33.285Z,40.80
2023-01-23T00:19:01.480Z,44.38
2023-01-23T00:21:31.072Z,50.33
2023-01-23T00:24:00.506Z,56.25
2023-01-23T00:26:30.901Z,34.65
2023-01-23T00:28:59.689Z,40.70
2023-01-23T00:31:32.877Z,38.63
2023-01-23T00:34:04.229Z,41.55
2023-01-23T00:36:35.951Z,45.50
2023-01-23T00:39:06.060Z,45.30
2023-01-23T00:41:34.910Z,42.95
2023-01-23T00:44:04.237Z,44.65
2023-01-23T00:46:32.515Z,32.08
2023-01-23T00:49:00.825Z,56.15
2023-01-23T00:51:29.183Z,55.03
2023-01-23T00:53:57.490Z,43.53
2023-01-23T00:56:26.157Z,35.22
2023-01-23T00:58:54.683Z,46.70
2023-01-23T01:01:23.039Z,40.70
2023-01-23T01:03:51.580Z,46.65
2023-01-23T01:06:19.678Z,39.30
2023-01-23T01:08:48.120Z,37.90
2023-01-23T01:11:17.837Z,43.30
2023-01-23T01:13:46.333Z,40.08
2023-01-23T01:16:14.728Z,36.17
2023-01-23T01:18:43.726Z,39.38
2023-01-23T01:21:15.144Z,31.10
2023-01-23T01:23:43.676Z,48.45
2023-01-23T01:26:12.323Z,47.17
2023-01-23T01:28:41.526Z,30.60
2023-01-23T01:31:15.742Z,39.20
2023-01-23T01:33:45.250Z,41.20
2023-01-23T01:36:17.520Z,36.22
2023-01-23T01:38:48.214Z,41.63
2023-01-23T01:41:17.238Z,50.08
2023-01-23T01:43:45.756Z,38.67
2023-01-23T01:46:19.145Z,48.10
2023-01-23T01:49:15.007Z,53.20
2023-01-23T01:52:00.236Z,56.20
2023-01-23T01:54:52.925Z,35.20
2023-01-23T01:57:28.750Z,45.28
2023-01-23T02:00:14.963Z,34.20
2023-01-23T02:02:43.073Z,42.70
2023-01-23T02:05:19.558Z,37.55
2023-01-23T02:08:08.317Z,27.45
2023-01-23T02:10:36.742Z,35.97
2023-01-23T02:13:32.844Z,29.55
2023-01-23T02:16:22.543Z,41.28
2023-01-23T02:18:53.315Z,34.85
2023-01-23T02:21:25.461Z,28.23
2023-01-23T02:24:17.817Z,40.35
2023-01-23T02:26:47.645Z,35.30
2023-01-23T02:29:17.194Z,32.47
2023-01-23T02:31:49.831Z,40.65
2023-01-23T02:34:18.314Z,43.38
2023-01-23T02:36:49.308Z,46.80
2023-01-23T02:39:21.264Z,30.08
2023-01-23T02:41:56.270Z,32.35
2023-01-23T02:44:39.418Z,42.38
2023-01-23T02:47:09.464Z,31.52
2023-01-23T02:49:39.668Z,38.75
2023-01-23T02:52:10.557Z,42.08
2023-01-23T02:54:38.920Z,48.63
2023-01-23T02:57:07.583Z,46.30
2023-01-23T02:59:36.012Z,48.88
2023-01-23T03:02:06.042Z,49.28
2023-01-23T03:04:34.476Z,47.85
2023-01-23T03:07:02.851Z,34.50
2023-01-23T03:09:31.319Z,59.88
2023-01-23T03:11:59.763Z,52.50
2023-01-23T03:14:28.567Z,37.88
2023-01-23T03:16:56.868Z,67.90
2023-01-23T03:19:30.548Z,44.75
2023-01-23T03:21:59.973Z,41.47
2023-01-23T03:24:28.327Z,29.92
2023-01-23T03:26:56.729Z,32.53
2023-01-23T03:29:27.501Z,20.70
2023-01-23T03:31:55.829Z,29.67
2023-01-23T03:34:24.205Z,48.55
2023-01-23T03:36:52.808Z,35.95
2023-01-23T03:39:21.213Z,26.60
2023-01-23T03:41:49.775Z,30.40
2023-01-23T03:44:21.043Z,32.38
2023-01-23T03:46:51.985Z,46.38
2023-01-23T03:49:21.332Z,35.85
2023-01-23T03:51:56.680Z,37.97
2023-01-23T03:54:24.970Z,58.40
2023-01-23T03:56:54.319Z,78.55
2023-01-23T03:59:51.439Z,93.65
2023-01-23T04:02:22.202Z,79.55
2023-01-23T04:04:50.528Z,81.20
2023-01-23T04:07:19.795Z,87.25
2023-01-23T04:13:15.718Z,67.78
2023-01-23T04:15:44.465Z,58.72
2023-01-23T04:18:12.850Z,74.57
2023-01-23T04:20:40.998Z,68.40
2023-01-23T04:23:09.383Z,70.97
2023-01-23T04:25:38.582Z,71.75
2023-01-23T04:28:13.305Z,91.78
2023-01-23T04:30:41.926Z,89.63
2023-01-23T04:33:18.422Z,78.82
2023-01-23T04:35:56.443Z,81.47
2023-01-23T04:38:28.850Z,89.95
2023-01-23T04:40:58.010Z,78.77
2023-01-23T04:43:26.456Z,61.92
2023-01-23T04:45:56.938Z,67.32
2023-01-23T04:48:43.818Z,56.95
2023-01-23T04:51:13.788Z,62.08
2023-01-23T04:53:42.108Z,73.20
2023-01-23T04:56:11.871Z,69.88
2023-01-23T04:58:40.169Z,71.60
2023-01-23T05:01:10.966Z,67.68
2023-01-23T05:03:39.538Z,71.25
2023-01-23T05:06:08.001Z,53.63
2023-01-23T05:08:36.698Z,59.13
2023-01-23T05:11:42.970Z,61.83
2023-01-23T05:14:13.694Z,49.47
2023-01-23T05:16:43.095Z,55.95
2023-01-23T05:19:34.259Z,54.75
2023-01-23T05:22:04.867Z,52.30
2023-01-23T05:24:33.127Z,45.78
2023-01-23T05:27:01.386Z,50.28
2023-01-23T05:29:32.000Z,49.17
2023-01-23T05:32:07.769Z,38.80
2023-01-23T05:34:38.971Z,37.15
2023-01-23T05:37:33.082Z,32.95
2023-01-23T05:40:07.329Z,34.55
2023-01-23T05:42:54.021Z,33.33
2023-01-23T05:45:48.148Z,32.85
2023-01-23T05:48:26.611Z,48.75
2023-01-23T05:50:54.979Z,39.22
2023-01-23T05:53:23.207Z,36.22
2023-01-23T05:55:51.495Z,40.25
2023-01-23T05:58:21.234Z,40.60
2023-01-23T06:01:24.508Z,48.05
2023-01-23T06:04:12.719Z,45.20
2023-01-23T06:06:54.367Z,48.63
2023-01-23T06:09:22.687Z,44.33
2023-01-23T06:11:51.374Z,48.97
2023-01-23T06:14:20.323Z,51.47
2023-01-23T06:16:48.688Z,61.35
2023-01-23T06:19:17.058Z,68.00
2023-01-23T06:21:45.372Z,66.07
2023-01-23T06:24:15.196Z,58.58
2023-01-23T06:26:43.447Z,62.33
2023-01-23T06:29:11.722Z,74.93
2023-01-23T06:31:40.140Z,54.30
2023-01-23T06:34:09.327Z,54.47
2023-01-23T06:36:45.019Z,65.00
2023-01-23T06:39:16.221Z,61.40
2023-01-23T06:41:45.044Z,60.75
2023-01-23T06:44:19.059Z,43.92
2023-01-23T06:46:48.077Z,61.25
2023-01-23T06:49:16.536Z,53.70
2023-01-23T06:51:44.892Z,43.92
2023-01-23T06:54:13.986Z,70.85
2023-01-23T06:56:42.444Z,70.90
2023-01-23T06:59:11.989Z,69.50
2023-01-23T07:01:42.435Z,66.85
2023-01-23T07:04:13.818Z,78.57
2023-01-23T07:06:43.714Z,55.42
2023-01-23T07:09:14.754Z,53.50
2023-01-23T07:11:47.252Z,49.60
2023-01-23T07:14:15.696Z,54.90
2023-01-23T07:16:47.599Z,61.30
2023-01-23T07:19:18.193Z,51.53
2023-01-23T07:21:48.565Z,60.80
2023-01-23T07:24:18.035Z,70.38
2023-01-23T07:26:46.121Z,52.78
2023-01-23T07:29:14.440Z,75.72
2023-01-23T07:31:42.777Z,58.65
2023-01-23T07:34:11.000Z,68.22
2023-01-23T07:36:39.173Z,105.78
2023-01-23T07:39:07.313Z,61.22
2023-01-23T07:41:35.690Z,60.30
2023-01-23T07:44:08.775Z,60.58
2023-01-23T07:46:37.190Z,92.43
2023-01-23T07:49:05.546Z,56.03
2023-01-23T07:51:35.589Z,64.57
2023-01-23T07:54:03.867Z,73.07
2023-01-23T07:56:32.538Z,70.13
2023-01-23T07:59:01.432Z,71.07
2023-01-23T08:01:29.711Z,70.93
2023-01-23T08:03:57.930Z,68.40
2023-01-23T08:06:26.439Z,63.28
2023-01-23T08:08:54.562Z,59.97
2023-01-23T08:11:22.849Z,50.10
2023-01-23T08:13:51.539Z,73.93
2023-01-23T08:16:19.874Z,54.47
2023-01-23T08:18:48.185Z,68.50
2023-01-23T08:21:16.423Z,55.35
2023-01-23T08:23:44.694Z,54.47
2023-01-23T08:26:15.096Z,57.90
2023-01-23T08:28:44.936Z,63.22
2023-01-23T08:31:14.310Z,61.15
2023-01-23T08:33:42.816Z,64.88
2023-01-23T08:36:13.285Z,73.13
2023-01-23T08:38:41.509Z,78.70
2023-01-23T08:41:10.765Z,63.92
2023-01-23T08:43:39.838Z,59.65
2023-01-23T08:46:08.482Z,61.08
2023-01-23T08:48:37.086Z,64.35
2023-01-23T08:51:11.087Z,52.13
2023-01-23T08:53:40.145Z,45.83
2023-01-23T08:56:16.549Z,55.95
2023-01-23T08:58:46.259Z,44.03
2023-01-23T09:01:19.685Z,58.85
2023-01-23T09:03:48.331Z,44.63
2023-01-23T09:06:19.771Z,85.65
2023-01-23T09:08:48.441Z,57.35
2023-01-23T09:11:17.669Z,84.72
2023-01-23T09:13:48.908Z,109.18
2023-01-23T09:16:17.720Z,45.85
2023-01-23T09:18:45.911Z,47.67
2023-01-23T09:21:16.694Z,39.58
2023-01-23T09:23:44.937Z,50.42
2023-01-23T09:26:14.327Z,47.50
2023-01-23T09:28:43.592Z,56.90
2023-01-23T09:31:14.035Z,34.00
2023-01-23T09:33:43.045Z,40.17
2023-01-23T09:36:11.377Z,49.53
2023-01-23T09:38:39.744Z,40.15
2023-01-23T09:41:28.878Z,51.72
2023-01-23T09:44:13.216Z,50.78
2023-01-23T09:46:58.409Z,49.08
2023-01-23T09:49:43.634Z,56.33
2023-01-23T09:52:22.147Z,69.38
2023-01-23T09:55:02.634Z,33.78
2023-01-23T09:57:44.302Z,61.40
2023-01-23T10:00:24.297Z,37.85
2023-01-23T10:02:53.235Z,64.65
2023-01-23T10:05:46.594Z,40.55
2023-01-23T10:08:14.914Z,47.20
2023-01-23T10:11:02.197Z,44.33
2023-01-23T10:13:49.162Z,39.75
2023-01-23T10:16:49.577Z,46.80
2023-01-23T10:19:33.946Z,39.75
2023-01-23T10:22:08.374Z,47.05
2023-01-23T10:24:54.911Z,62.80
2023-01-23T10:27:31.639Z,44.50
2023-01-23T10:30:29.356Z,48.97
2023-01-23T10:33:02.900Z,54.72
2023-01-23T10:35:59.561Z,38.75
2023-01-23T10:38:38.103Z,37.53
2023-01-23T10:41:14.431Z,32.80
2023-01-23T10:43:44.540Z,45.15
2023-01-23T10:46:16.249Z,26.60
2023-01-23T10:48:46.076Z,39.10
2023-01-23T10:51:32.775Z,36.63
2023-01-23T10:54:31.775Z,37.03
2023-01-23T10:57:03.104Z,34.65
2023-01-23T10:59:38.920Z,34.80
2023-01-23T11:02:16.445Z,31.45
2023-01-23T11:04:47.738Z,28.50
2023-01-23T11:07:22.222Z,31.17
2023-01-23T11:10:02.563Z,37.85
2023-01-23T11:12:33.638Z,27.05
2023-01-23T11:15:25.011Z,34.70
2023-01-23T11:17:55.165Z,46.78
2023-01-23T11:20:31.649Z,55.10
2023-01-23T11:23:19.990Z,38.97
2023-01-23T11:25:53.599Z,43.67
2023-01-23T11:28:35.781Z,51.50
2023-01-23T11:33:50.209Z,34.90
2023-01-23T11:36:18.462Z,55.05
2023-01-23T11:38:54.255Z,54.83
2023-01-23T11:41:30.663Z,51.10
2023-01-23T11:43:59.263Z,44.97
2023-01-23T11:46:39.245Z,49.28
2023-01-23T11:49:27.334Z,41.50
2023-01-23T11:51:58.574Z,35.85
2023-01-23T11:54:54.104Z,37.33
2023-01-23T11:58:03.243Z,44.60
2023-01-23T12:00:37.710Z,36.38
2023-01-23T12:03:11.891Z,43.88
2023-01-23T12:05:52.253Z,37.20
2023-01-23T12:08:29.460Z,44.38
2023-01-23T12:11:03.619Z,41.65
2023-01-23T12:13:47.115Z,48.67
2023-01-23T12:25:46.304Z,39.88
2023-01-23T12:28:48.411Z,40.83
2023-01-23T12:31:42.632Z,48.65
2023-01-23T12:34:46.259Z,48.63
2023-01-23T12:37:31.318Z,44.25
2023-01-23T12:40:12.474Z,50.28
2023-01-23T12:43:00.570Z,49.85
2023-01-23T12:45:30.445Z,39.92
2023-01-23T12:48:20.473Z,41.55
2023-01-23T12:51:31.497Z,54.85
2023-01-23T12:54:03.683Z,39.10
2023-01-23T12:56:35.744Z,40.63
2023-01-23T13:02:07.781Z,45.53
2023-01-23T13:04:59.830Z,51.28
2023-01-23T13:07:56.975Z,45.47
2023-01-23T13:10:32.934Z,47.38
2023-01-23T13:13:01.351Z,48.15
2023-01-23T13:15:40.295Z,35.28
2023-01-23T13:18:26.229Z,43.50
2023-01-23T13:21:01.106Z,41.90
2023-01-23T13:23:35.168Z,43.53
2023-01-23T13:26:18.826Z,37.40
2023-01-23T13:28:54.874Z,48.63
2023-01-23T13:31:27.987Z,67.18
2023-01-23T13:34:06.715Z,85.63
2023-01-23T13:36:38.798Z,38.13
2023-01-23T13:39:15.713Z,47.05
2023-01-23T13:41:45.692Z,51.45
2023-01-23T13:44:40.147Z,48.15
2023-01-23T14:21:30.337Z,39.45
2023-01-23T14:24:03.317Z,42.63
2023-01-23T14:26:33.967Z,49.85
2023-01-23T14:29:05.102Z,54.13
2023-01-23T14:31:35.740Z,46.80
2023-01-23T14:34:17.814Z,35.97
2023-01-23T14:36:51.213Z,41.22
2023-01-23T14:39:27.066Z,37.08
2023-01-23T14:41:59.043Z,33.08
2023-01-23T14:44:44.111Z,55.55
2023-01-23T14:47:22.480Z,32.10
2023-01-23T14:49:50.871Z,43.17
2023-01-23T14:52:27.695Z,45.40
2023-01-23T14:54:59.193Z,35.60
2023-01-23T14:57:30.306Z,71.10
2023-01-23T14:59:59.578Z,50.05
2023-01-23T15:02:35.454Z,38.50
2023-01-23T15:05:17.059Z,55.33
2023-01-23T15:07:50.013Z,45.85
2023-01-23T15:10:21.873Z,69.53
2023-01-23T15:13:03.513Z,54.45
2023-01-23T15:15:35.117Z,66.82
2023-01-23T15:18:08.539Z,49.40
2023-01-23T15:20:39.987Z,46.78
2023-01-23T15:23:31.295Z,67.95
2023-01-23T15:26:30.639Z,64.25
2023-01-23T15:29:02.535Z,45.00
2023-01-23T15:34:15.802Z,55.42
2023-01-23T15:37:06.166Z,56.92
2023-01-23T15:39:37.358Z,44.38
2023-01-23T15:42:28.500Z,42.70
2023-01-23T15:44:57.165Z,46.10
2023-01-23T15:47:25.396Z,37.15
2023-01-23T15:49:53.604Z,49.13
2023-01-23T15:52:25.314Z,35.65
2023-01-23T15:55:00.605Z,38.22
2023-01-23T15:57:28.924Z,32.70
2023-01-23T15:59:57.021Z,33.30
2023-01-23T16:02:30.949Z,33.67
2023-01-23T16:05:00.165Z,39.67
2023-01-23T16:07:33.865Z,44.97
2023-01-23T16:10:06.688Z,51.63
2023-01-23T16:12:34.887Z,67.45
2023-01-23T16:15:02.971Z,52.97
2023-01-23T16:17:31.284Z,51.40
2023-01-23T16:19:59.437Z,43.67
2023-01-23T16:22:29.445Z,51.22
2023-01-23T16:24:59.007Z,40.40
2023-01-23T16:27:27.877Z,39.65
2023-01-23T16:29:57.153Z,39.15
2023-01-23T16:32:25.733Z,38.67
2023-01-23T16:34:53.974Z,40.33
2023-01-23T16:37:25.179Z,47.75
2023-01-23T16:39:53.504Z,38.22
2023-01-23T16:42:26.137Z,31.33
2023-01-23T16:44:54.547Z,48.45
2023-01-23T16:47:22.938Z,35.72
2023-01-23T16:49:52.923Z,47.55
2023-01-23T16:52:24.734Z,63.95
2023-01-23T16:54:54.697Z,45.85
2023-01-23T16:57:23.282Z,63.20
2023-01-23T16:59:55.371Z,43.75
2023-01-23T17:02:28.147Z,38.35
2023-01-23T17:04:56.419Z,33.47
2023-01-23T17:07:24.738Z,57.63
2023-01-23T17:09:52.908Z,50.13
2023-01-23T17:12:26.077Z,35.22
2023-01-23T17:14:55.324Z,49.25
2023-01-23T17:17:32.858Z,37.72
2023-01-23T17:20:02.359Z,33.42
2023-01-23T17:22:35.228Z,56.67
2023-01-23T17:25:04.150Z,57.00
2023-01-23T17:27:41.682Z,57.30
2023-01-23T17:30:21.072Z,50.35
2023-01-23T17:32:55.630Z,54.53
2023-01-23T17:35:26.893Z,51.42
2023-01-23T17:37:56.144Z,57.63
2023-01-23T17:40:24.767Z,66.45
2023-01-23T17:42:53.024Z,51.80
2023-01-23T17:45:23.693Z,53.53
2023-01-23T17:47:54.847Z,54.60
2023-01-23T17:50:27.508Z,61.00
2023-01-23T17:52:55.978Z,62.90
2023-01-23T17:55:26.995Z,69.63
2023-01-23T17:57:55.549Z,59.07
2023-01-23T18:00:24.884Z,79.10
2023-01-23T18:03:00.003Z,65.88
2023-01-23T18:06:55.534Z,47.33
2023-01-23T18:09:23.977Z,58.83
2023-01-23T18:11:52.262Z,52.13
2023-01-23T18:14:56.463Z,45.28
2023-01-23T18:17:48.323Z,63.78
2023-01-23T18:20:22.088Z,78.80
2023-01-23T18:22:50.692Z,74.75
2023-01-23T18:25:20.886Z,78.72
2023-01-23T18:27:53.536Z,71.28
2023-01-23T18:30:34.854Z,83.53
2023-01-23T18:33:15.369Z,52.35
2023-01-23T18:36:05.141Z,85.63
2023-01-23T18:38:55.174Z,89.47
2023-01-23T18:41:28.977Z,111.50
2023-01-23T18:44:23.504Z,90.60
2023-01-23T18:46:54.921Z,77.40
2023-01-23T18:49:32.312Z,78.13
2023-01-23T18:52:30.273Z,78.22
2023-01-23T18:55:26.221Z,101.63
2023-01-23T18:58:13.437Z,87.97
2023-01-23T19:00:52.998Z,64.40
2023-01-23T19:03:36.634Z,58.97
2023-01-23T19:06:06.446Z,66.65
2023-01-23T19:08:49.109Z,85.55
2023-01-23T19:11:51.555Z,74.53
2023-01-23T19:14:32.363Z,50.85
2023-01-23T19:17:16.843Z,76.10
2023-01-23T19:20:10.265Z,72.70
2023-01-23T19:22:53.365Z,57.85
2023-01-23T19:25:22.350Z,60.38
2023-01-23T19:27:52.413Z,71.93
2023-01-23T19:30:24.095Z,61.05
2023-01-23T19:32:52.661Z,52.60
2023-01-23T19:35:21.865Z,57.63
2023-01-23T19:37:50.409Z,48.25
2023-01-23T19:40:18.947Z,63.40
2023-01-23T19:42:58.823Z,42.40
2023-01-23T19:45:34.469Z,46.92
2023-01-23T19:48:03.001Z,48.88
2023-01-23T19:50:31.282Z,48.92
2023-01-23T19:52:59.729Z,60.58
2023-01-23T19:55:29.427Z,43.28
2023-01-23T19:57:57.800Z,49.00
2023-01-23T20:00:27.659Z,83.68
2023-01-23T20:02:56.137Z,69.28
2023-01-23T20:05:25.253Z,55.15
2023-01-23T20:07:54.389Z,56.50
2023-01-23T20:10:22.912Z,59.88
2023-01-23T20:12:52.900Z,54.28
2023-01-23T20:15:25.005Z,43.55
2023-01-23T20:17:54.320Z,50.77
2023-01-23T20:20:23.223Z,44.78
2023-01-23T20:22:52.124Z,48.55
2023-01-23T20:25:20.922Z,44.88
2023-01-23T20:27:49.686Z,57.50
2023-01-23T20:30:19.652Z,46.00
2023-01-23T20:32:48.374Z,37.78
2023-01-23T20:35:16.695Z,48.60
2023-01-23T20:37:45.071Z,42.80
2023-01-23T20:40:13.779Z,50.55
2023-01-23T20:42:42.197Z,44.95
2023-01-23T20:45:13.623Z,52.78
2023-01-23T20:47:41.932Z,47.00
2023-01-23T20:50:10.822Z,43.47
2023-01-23T20:52:39.391Z,40.50
2023-01-23T20:55:08.062Z,53.63
2023-01-23T20:57:36.344Z,52.28
2023-01-23T21:00:05.244Z,51.65
2023-01-23T21:02:33.807Z,73.28
2023-01-23T21:05:02.256Z,60.67
2023-01-23T21:07:30.788Z,77.93
2023-01-23T21:09:59.221Z,70.30
2023-01-23T21:12:44.947Z,79.75
2023-01-23T21:15:13.669Z,84.38
2023-01-23T21:17:42.028Z,67.57
2023-01-23T21:20:11.221Z,75.15
2023-01-23T21:22:39.661Z,55.03
2023-01-23T21:25:08.882Z,76.32
2023-01-23T21:27:38.488Z,55.88
2023-01-23T21:30:07.460Z,56.20
2023-01-23T21:32:35.971Z,60.53
2023-01-23T21:35:04.343Z,57.80
2023-01-23T21:37:32.741Z,55.10
2023-01-23T21:40:01.180Z,61.90
2023-01-23T21:42:29.545Z,57.78
2023-01-23T21:44:57.926Z,52.50
2023-01-23T21:47:26.303Z,69.22
2023-01-23T21:49:54.691Z,55.03
2023-01-23T21:52:23.099Z,54.58
2023-01-23T21:54:51.293Z,64.70
2023-01-23T21:57:19.579Z,49.05
2023-01-23T21:59:47.863Z,63.63
2023-01-23T22:02:16.179Z,44.28
2023-01-23T22:04:44.737Z,56.60
2023-01-23T22:07:12.992Z,59.72
2023-01-23T22:09:41.091Z,68.25
2023-01-23T22:12:09.482Z,62.47
2023-01-23T22:14:37.685Z,56.33
2023-01-23T22:17:05.907Z,56.63
2023-01-23T22:19:34.372Z,56.58
2023-01-23T22:22:02.589Z,50.08
2023-01-23T22:24:30.952Z,56.83
2023-01-23T22:26:59.228Z,71.65
2023-01-23T22:29:27.601Z,61.05
2023-01-23T22:31:55.818Z,69.68
2023-01-23T22:34:24.467Z,66.82
2023-01-23T22:36:52.781Z,61.95
2023-01-23T22:39:20.865Z,50.13
2023-01-23T22:41:49.947Z,51.10
2023-01-23T22:44:18.578Z,49.25
2023-01-23T22:46:46.938Z,49.05
2023-01-23T22:49:15.136Z,48.40
2023-01-23T22:51:43.346Z,47.55
2023-01-23T22:54:11.695Z,52.40
2023-01-23T22:56:39.901Z,40.30
2023-01-23T22:59:08.274Z,45.80
2023-01-23T23:01:36.892Z,53.33
2023-01-23T23:04:05.447Z,57.88
2023-01-23T23:06:33.794Z,53.08
2023-01-23T23:09:02.006Z,56.08
2023-01-23T23:11:30.569Z,50.00
2023-01-23T23:13:59.033Z,59.88
2023-01-23T23:16:30.280Z,45.40
2023-01-23T23:19:01.143Z,48.30
2023-01-23T23:21:32.384Z,49.65
2023-01-23T23:24:01.598Z,59.10
2023-01-23T23:26:30.649Z,55.88
2023-01-23T23:29:00.580Z,48.20
2023-01-23T23:31:29.265Z,50.58
2023-01-23T23:33:57.804Z,47.42
2023-01-23T23:36:26.300Z,50.63
2023-01-23T23:38:54.577Z,47.42
2023-01-23T23:41:22.741Z,54.97
2023-01-23T23:43:51.345Z,56.88
2023-01-23T23:46:20.056Z,51.47
2023-01-23T23:48:48.270Z,56.78
2023-01-23T23:51:18.147Z,47.95
2023-01-23T23:53:46.858Z,46.85
2023-01-23T23:56:24.776Z,58.40
2023-01-23T23:58:53.630Z,52.47
